sensor_id;sensor_type;location;lat;lon;timestamp;pressure;altitude;pressure_sealevel;temperature;humidity
77574;BME280;66710;48.868;9.080;2023-04-24T00:00:54;96990.31;;;10.32;76.10
77574;BME280;66710;48.868;9.080;2023-04-24T00:03:22;96990.59;;;10.31;76.18
77574;BME280;66710;48.868;9.080;2023-04-24T00:05:48;96996.09;;;10.44;74.92
77574;BME280;66710;48.868;9.080;2023-04-24T00:08:13;96988.25;;;10.43;74.91
77574;BME280;66710;48.868;9.080;2023-04-24T00:10:39;96981.84;;;10.34;75.53
77574;BME280;66710;48.868;9.080;2023-04-24T00:13:04;96977.88;;;10.45;74.78
77574;BME280;66710;48.868;9.080;2023-04-24T00:15:30;96989.13;;;10.38;75.15
77574;BME280;66710;48.868;9.080;2023-04-24T00:17:56;96999.38;;;10.47;74.63
77574;BME280;66710;48.868;9.080;2023-04-24T00:20:21;97004.06;;;10.41;75.13
77574;BME280;66710;48.868;9.080;2023-04-24T00:22:47;97010.25;;;10.47;74.96
77574;BME280;66710;48.868;9.080;2023-04-24T00:25:13;96996.94;;;10.45;75.12
77574;BME280;66710;48.868;9.080;2023-04-24T00:27:38;96996.84;;;10.50;74.54
77574;BME280;66710;48.868;9.080;2023-04-24T00:30:04;96992.13;;;10.56;74.18
77574;BME280;66710;48.868;9.080;2023-04-24T00:32:30;96993.53;;;10.53;74.24
77574;BME280;66710;48.868;9.080;2023-04-24T00:34:55;96985.56;;;10.57;73.79
77574;BME280;66710;48.868;9.080;2023-04-24T00:37:20;97001.09;;;10.56;74.02
77574;BME280;66710;48.868;9.080;2023-04-24T00:39:46;97003.09;;;10.51;74.52
77574;BME280;66710;48.868;9.080;2023-04-24T00:42:12;97000.09;;;10.52;74.24
77574;BME280;66710;48.868;9.080;2023-04-24T00:44:37;97001.19;;;10.51;74.05
77574;BME280;66710;48.868;9.080;2023-04-24T00:47:03;96985.34;;;10.53;73.99
77574;BME280;66710;48.868;9.080;2023-04-24T00:49:29;96989.78;;;10.49;74.40
77574;BME280;66710;48.868;9.080;2023-04-24T00:51:54;96992.78;;;10.48;73.86
77574;BME280;66710;48.868;9.080;2023-04-24T00:54:19;96987.28;;;10.53;73.97
77574;BME280;66710;48.868;9.080;2023-04-24T00:56:45;96983.16;;;10.55;73.92
77574;BME280;66710;48.868;9.080;2023-04-24T00:59:12;96984.75;;;10.56;73.79
77574;BME280;66710;48.868;9.080;2023-04-24T01:01:38;96984.53;;;10.53;73.87
77574;BME280;66710;48.868;9.080;2023-04-24T01:04:07;96977.50;;;10.52;73.99
77574;BME280;66710;48.868;9.080;2023-04-24T01:06:33;96976.97;;;10.50;73.88
77574;BME280;66710;48.868;9.080;2023-04-24T01:08:59;96974.66;;;10.57;73.39
77574;BME280;66710;48.868;9.080;2023-04-24T01:11:25;96973.56;;;10.58;73.56
77574;BME280;66710;48.868;9.080;2023-04-24T01:13:51;96971.34;;;10.60;73.33
77574;BME280;66710;48.868;9.080;2023-04-24T01:16:17;96968.13;;;10.58;73.59
77574;BME280;66710;48.868;9.080;2023-04-24T01:18:44;96964.09;;;10.55;73.80
77574;BME280;66710;48.868;9.080;2023-04-24T01:21:13;96969.63;;;10.50;73.98
77574;BME280;66710;48.868;9.080;2023-04-24T01:23:40;96966.00;;;10.55;73.49
77574;BME280;66710;48.868;9.080;2023-04-24T01:26:05;96951.66;;;10.49;73.56
77574;BME280;66710;48.868;9.080;2023-04-24T01:28:31;96947.09;;;10.44;74.16
77574;BME280;66710;48.868;9.080;2023-04-24T01:30:56;96943.06;;;10.42;74.38
77574;BME280;66710;48.868;9.080;2023-04-24T01:33:22;96945.00;;;10.41;74.27
77574;BME280;66710;48.868;9.080;2023-04-24T01:35:48;96952.13;;;10.37;74.47
77574;BME280;66710;48.868;9.080;2023-04-24T01:38:13;96946.75;;;10.32;74.73
77574;BME280;66710;48.868;9.080;2023-04-24T01:40:39;96949.19;;;10.34;74.25
77574;BME280;66710;48.868;9.080;2023-04-24T01:43:05;96941.69;;;10.25;74.88
77574;BME280;66710;48.868;9.080;2023-04-24T01:45:30;96951.81;;;10.20;75.48
77574;BME280;66710;48.868;9.080;2023-04-24T01:47:56;96949.91;;;10.20;75.16
77574;BME280;66710;48.868;9.080;2023-04-24T01:50:22;96947.41;;;10.24;75.17
77574;BME280;66710;48.868;9.080;2023-04-24T01:52:47;96953.94;;;10.23;74.96
77574;BME280;66710;48.868;9.080;2023-04-24T01:55:13;96947.78;;;10.17;75.34
77574;BME280;66710;48.868;9.080;2023-04-24T01:57:38;96944.34;;;10.12;75.85
77574;BME280;66710;48.868;9.080;2023-04-24T02:00:05;96946.34;;;10.06;75.86
77574;BME280;66710;48.868;9.080;2023-04-24T02:02:32;96944.50;;;10.01;76.22
77574;BME280;66710;48.868;9.080;2023-04-24T02:04:57;96945.06;;;9.98;76.39
77574;BME280;66710;48.868;9.080;2023-04-24T02:07:22;96939.41;;;9.95;76.81
77574;BME280;66710;48.868;9.080;2023-04-24T02:09:48;96949.72;;;9.98;76.46
77574;BME280;66710;48.868;9.080;2023-04-24T02:12:15;96957.16;;;9.92;76.81
77574;BME280;66710;48.868;9.080;2023-04-24T02:14:41;96947.56;;;9.95;77.00
77574;BME280;66710;48.868;9.080;2023-04-24T02:17:07;96961.19;;;9.95;76.99
77574;BME280;66710;48.868;9.080;2023-04-24T02:19:32;96956.25;;;9.97;77.14
77574;BME280;66710;48.868;9.080;2023-04-24T02:21:58;96949.34;;;10.04;76.80
77574;BME280;66710;48.868;9.080;2023-04-24T02:24:23;96950.44;;;10.03;76.96
77574;BME280;66710;48.868;9.080;2023-04-24T02:26:49;96967.72;;;10.13;76.72
77574;BME280;66710;48.868;9.080;2023-04-24T02:29:14;96968.84;;;10.12;77.32
77574;BME280;66710;48.868;9.080;2023-04-24T02:31:40;96989.19;;;10.14;77.88
77574;BME280;66710;48.868;9.080;2023-04-24T02:34:05;96979.13;;;9.96;80.00
77574;BME280;66710;48.868;9.080;2023-04-24T02:36:31;96976.41;;;9.77;82.51
77574;BME280;66710;48.868;9.080;2023-04-24T02:38:56;96977.00;;;9.93;81.13
77574;BME280;66710;48.868;9.080;2023-04-24T02:41:22;96982.34;;;9.79;82.27
77574;BME280;66710;48.868;9.080;2023-04-24T02:43:47;96975.72;;;9.66;83.99
77574;BME280;66710;48.868;9.080;2023-04-24T02:46:12;96973.16;;;9.75;82.93
77574;BME280;66710;48.868;9.080;2023-04-24T02:48:38;96959.06;;;9.73;83.09
77574;BME280;66710;48.868;9.080;2023-04-24T02:51:03;96964.06;;;9.65;83.35
77574;BME280;66710;48.868;9.080;2023-04-24T02:53:29;96957.56;;;9.61;83.66
77574;BME280;66710;48.868;9.080;2023-04-24T02:55:55;96955.28;;;9.68;83.14
77574;BME280;66710;48.868;9.080;2023-04-24T02:58:21;96952.94;;;9.62;83.60
77574;BME280;66710;48.868;9.080;2023-04-24T03:00:47;96953.53;;;9.59;83.89
77574;BME280;66710;48.868;9.080;2023-04-24T03:03:12;96948.59;;;9.61;83.79
77574;BME280;66710;48.868;9.080;2023-04-24T03:05:38;96948.88;;;9.59;83.63
77574;BME280;66710;48.868;9.080;2023-04-24T03:08:04;96943.50;;;9.54;84.71
77574;BME280;66710;48.868;9.080;2023-04-24T03:10:29;96948.78;;;9.45;84.63
77574;BME280;66710;48.868;9.080;2023-04-24T03:12:55;96939.84;;;9.45;84.65
77574;BME280;66710;48.868;9.080;2023-04-24T03:15:20;96938.03;;;9.35;84.88
77574;BME280;66710;48.868;9.080;2023-04-24T03:17:45;96941.38;;;9.32;85.17
77574;BME280;66710;48.868;9.080;2023-04-24T03:20:11;96940.75;;;9.35;84.57
77574;BME280;66710;48.868;9.080;2023-04-24T03:22:36;96942.75;;;9.29;85.00
77574;BME280;66710;48.868;9.080;2023-04-24T03:25:02;96943.09;;;9.23;85.24
77574;BME280;66710;48.868;9.080;2023-04-24T03:27:27;96943.91;;;9.23;85.26
77574;BME280;66710;48.868;9.080;2023-04-24T03:29:53;96936.63;;;9.19;85.19
77574;BME280;66710;48.868;9.080;2023-04-24T03:32:21;96939.50;;;9.27;84.48
77574;BME280;66710;48.868;9.080;2023-04-24T03:34:50;96931.69;;;9.21;84.96
77574;BME280;66710;48.868;9.080;2023-04-24T03:37:16;96931.19;;;9.19;84.61
77574;BME280;66710;48.868;9.080;2023-04-24T03:39:42;96934.69;;;9.19;84.49
77574;BME280;66710;48.868;9.080;2023-04-24T03:42:07;96933.84;;;9.24;84.54
77574;BME280;66710;48.868;9.080;2023-04-24T03:44:33;96942.00;;;9.24;84.18
77574;BME280;66710;48.868;9.080;2023-04-24T03:46:59;96942.78;;;9.24;84.39
77574;BME280;66710;48.868;9.080;2023-04-24T03:49:24;96935.25;;;9.21;84.54
77574;BME280;66710;48.868;9.080;2023-04-24T03:51:50;96936.34;;;9.20;84.27
77574;BME280;66710;48.868;9.080;2023-04-24T03:54:15;96940.97;;;9.20;84.71
77574;BME280;66710;48.868;9.080;2023-04-24T03:56:41;96944.19;;;9.22;84.50
77574;BME280;66710;48.868;9.080;2023-04-24T03:59:06;96948.50;;;9.23;84.58
77574;BME280;66710;48.868;9.080;2023-04-24T04:01:32;96950.44;;;9.22;84.77
77574;BME280;66710;48.868;9.080;2023-04-24T04:03:57;96958.31;;;9.24;84.98
77574;BME280;66710;48.868;9.080;2023-04-24T04:06:22;96963.50;;;9.20;85.63
77574;BME280;66710;48.868;9.080;2023-04-24T04:08:48;96967.31;;;9.19;85.60
77574;BME280;66710;48.868;9.080;2023-04-24T04:11:13;96984.06;;;9.26;86.07
77574;BME280;66710;48.868;9.080;2023-04-24T04:13:38;96997.84;;;9.11;87.43
77574;BME280;66710;48.868;9.080;2023-04-24T04:16:04;97031.16;;;8.92;89.61
77574;BME280;66710;48.868;9.080;2023-04-24T04:18:30;97017.66;;;8.82;86.86
77574;BME280;66710;48.868;9.080;2023-04-24T04:20:55;97020.88;;;8.89;83.47
77574;BME280;66710;48.868;9.080;2023-04-24T04:23:22;97010.72;;;8.71;85.61
77574;BME280;66710;48.868;9.080;2023-04-24T04:25:47;97018.59;;;8.72;84.66
77574;BME280;66710;48.868;9.080;2023-04-24T04:28:13;97028.41;;;8.68;84.20
77574;BME280;66710;48.868;9.080;2023-04-24T04:30:38;97021.34;;;8.67;84.23
77574;BME280;66710;48.868;9.080;2023-04-24T04:33:05;97032.53;;;8.61;84.58
77574;BME280;66710;48.868;9.080;2023-04-24T04:35:30;97036.06;;;8.61;84.80
77574;BME280;66710;48.868;9.080;2023-04-24T04:37:55;97033.59;;;8.65;83.91
77574;BME280;66710;48.868;9.080;2023-04-24T04:40:24;97039.09;;;8.54;84.42
77574;BME280;66710;48.868;9.080;2023-04-24T04:42:49;97028.47;;;8.58;83.87
77574;BME280;66710;48.868;9.080;2023-04-24T04:45:18;97035.31;;;8.50;84.94
77574;BME280;66710;48.868;9.080;2023-04-24T04:47:43;97036.16;;;8.51;85.41
77574;BME280;66710;48.868;9.080;2023-04-24T04:50:09;97044.59;;;8.44;85.95
77574;BME280;66710;48.868;9.080;2023-04-24T04:52:35;97044.59;;;8.44;85.02
77574;BME280;66710;48.868;9.080;2023-04-24T04:55:01;97055.72;;;8.38;85.81
77574;BME280;66710;48.868;9.080;2023-04-24T04:57:26;97055.72;;;8.38;86.15
77574;BME280;66710;48.868;9.080;2023-04-24T04:59:52;97069.59;;;8.31;86.62
77574;BME280;66710;48.868;9.080;2023-04-24T05:02:17;97074.25;;;8.30;86.64
77574;BME280;66710;48.868;9.080;2023-04-24T05:04:42;97074.25;;;8.30;86.40
77574;BME280;66710;48.868;9.080;2023-04-24T05:07:08;97086.75;;;8.26;86.59
77574;BME280;66710;48.868;9.080;2023-04-24T05:09:33;97085.66;;;8.22;86.87
77574;BME280;66710;48.868;9.080;2023-04-24T05:11:59;97093.81;;;8.22;87.83
77574;BME280;66710;48.868;9.080;2023-04-24T05:14:24;97096.00;;;8.20;87.63
77574;BME280;66710;48.868;9.080;2023-04-24T05:16:49;97096.81;;;8.21;86.83
77574;BME280;66710;48.868;9.080;2023-04-24T05:19:15;97098.97;;;8.19;87.65
77574;BME280;66710;48.868;9.080;2023-04-24T05:21:40;97098.97;;;8.24;86.10
77574;BME280;66710;48.868;9.080;2023-04-24T05:24:06;97103.56;;;8.28;85.81
77574;BME280;66710;48.868;9.080;2023-04-24T05:26:32;97099.22;;;8.22;87.55
77574;BME280;66710;48.868;9.080;2023-04-24T05:28:57;97109.56;;;8.20;87.11
77574;BME280;66710;48.868;9.080;2023-04-24T05:31:23;97107.72;;;8.15;87.08
77574;BME280;66710;48.868;9.080;2023-04-24T05:33:48;97116.13;;;8.14;87.05
77574;BME280;66710;48.868;9.080;2023-04-24T05:36:14;97123.44;;;8.13;86.52
77574;BME280;66710;48.868;9.080;2023-04-24T05:38:40;97134.84;;;8.10;87.13
77574;BME280;66710;48.868;9.080;2023-04-24T05:41:05;97142.16;;;8.10;86.58
77574;BME280;66710;48.868;9.080;2023-04-24T05:43:30;97148.41;;;8.15;85.56
77574;BME280;66710;48.868;9.080;2023-04-24T05:45:56;97153.75;;;8.26;85.33
77574;BME280;66710;48.868;9.080;2023-04-24T05:48:21;97153.97;;;8.34;85.51
77574;BME280;66710;48.868;9.080;2023-04-24T05:50:49;97152.34;;;8.44;85.21
77574;BME280;66710;48.868;9.080;2023-04-24T05:53:15;97158.25;;;8.56;85.36
77574;BME280;66710;48.868;9.080;2023-04-24T05:55:41;97148.69;;;8.64;84.00
77574;BME280;66710;48.868;9.080;2023-04-24T05:58:06;97153.59;;;8.67;83.75
77574;BME280;66710;48.868;9.080;2023-04-24T06:00:33;97156.28;;;8.67;85.45
77574;BME280;66710;48.868;9.080;2023-04-24T06:03:00;97160.66;;;8.58;82.67
77574;BME280;66710;48.868;9.080;2023-04-24T06:05:25;97158.50;;;8.60;84.04
77574;BME280;66710;48.868;9.080;2023-04-24T06:07:51;97160.34;;;8.69;82.43
77574;BME280;66710;48.868;9.080;2023-04-24T06:10:16;97162.16;;;8.84;82.51
77574;BME280;66710;48.868;9.080;2023-04-24T06:12:42;97159.47;;;8.79;81.28
77574;BME280;66710;48.868;9.080;2023-04-24T06:15:08;97149.09;;;8.86;82.41
77574;BME280;66710;48.868;9.080;2023-04-24T06:17:33;97160.69;;;8.97;78.05
77574;BME280;66710;48.868;9.080;2023-04-24T06:19:59;97158.88;;;9.22;81.42
77574;BME280;66710;48.868;9.080;2023-04-24T06:22:24;97153.34;;;9.32;80.96
77574;BME280;66710;48.868;9.080;2023-04-24T06:24:50;97146.84;;;9.28;79.09
77574;BME280;66710;48.868;9.080;2023-04-24T06:27:15;97149.72;;;9.42;77.65
77574;BME280;66710;48.868;9.080;2023-04-24T06:29:40;97145.97;;;9.38;78.72
77574;BME280;66710;48.868;9.080;2023-04-24T06:32:05;97145.69;;;9.63;77.39
77574;BME280;66710;48.868;9.080;2023-04-24T06:34:32;97158.72;;;9.66;76.99
77574;BME280;66710;48.868;9.080;2023-04-24T06:36:59;97156.38;;;9.55;77.49
77574;BME280;66710;48.868;9.080;2023-04-24T06:39:25;97165.63;;;9.59;77.17
77574;BME280;66710;48.868;9.080;2023-04-24T06:41:50;97154.50;;;9.55;75.72
77574;BME280;66710;48.868;9.080;2023-04-24T06:44:15;97158.78;;;9.61;76.64
77574;BME280;66710;48.868;9.080;2023-04-24T06:46:41;97156.13;;;9.80;76.25
77574;BME280;66710;48.868;9.080;2023-04-24T06:49:07;97156.94;;;9.81;75.40
77574;BME280;66710;48.868;9.080;2023-04-24T06:51:32;97153.78;;;9.98;75.31
77574;BME280;66710;48.868;9.080;2023-04-24T06:53:58;97153.34;;;10.34;74.69
77574;BME280;66710;48.868;9.080;2023-04-24T06:56:24;97148.31;;;10.65;72.86
77574;BME280;66710;48.868;9.080;2023-04-24T06:58:51;97146.47;;;10.60;72.96
77574;BME280;66710;48.868;9.080;2023-04-24T07:01:17;97147.81;;;10.63;69.61
77574;BME280;66710;48.868;9.080;2023-04-24T07:03:42;97148.81;;;10.86;69.60
77574;BME280;66710;48.868;9.080;2023-04-24T07:06:09;97153.41;;;10.72;66.48
77574;BME280;66710;48.868;9.080;2023-04-24T07:08:35;97166.06;;;10.62;65.72
77574;BME280;66710;48.868;9.080;2023-04-24T07:11:01;97159.69;;;10.48;67.40
77574;BME280;66710;48.868;9.080;2023-04-24T07:13:26;97160.25;;;10.50;68.60
77574;BME280;66710;48.868;9.080;2023-04-24T07:15:53;97171.47;;;10.19;67.43
77574;BME280;66710;48.868;9.080;2023-04-24T07:18:20;97172.75;;;10.27;69.09
77574;BME280;66710;48.868;9.080;2023-04-24T07:20:45;97170.38;;;10.20;68.92
77574;BME280;66710;48.868;9.080;2023-04-24T07:23:11;97168.94;;;10.52;69.08
77574;BME280;66710;48.868;9.080;2023-04-24T07:25:36;97168.94;;;10.52;67.41
77574;BME280;66710;48.868;9.080;2023-04-24T07:28:02;97168.91;;;10.33;66.47
77574;BME280;66710;48.868;9.080;2023-04-24T07:30:27;97171.28;;;10.78;65.27
77574;BME280;66710;48.868;9.080;2023-04-24T07:32:54;97182.78;;;10.56;63.96
77574;BME280;66710;48.868;9.080;2023-04-24T07:35:20;97151.63;;;10.43;63.62
77574;BME280;66710;48.868;9.080;2023-04-24T07:37:46;97186.72;;;10.44;62.81
77574;BME280;66710;48.868;9.080;2023-04-24T07:40:14;97201.16;;;10.45;64.24
77574;BME280;66710;48.868;9.080;2023-04-24T07:42:40;97200.41;;;10.39;64.88
77574;BME280;66710;48.868;9.080;2023-04-24T07:45:06;97193.09;;;10.59;63.06
77574;BME280;66710;48.868;9.080;2023-04-24T07:47:32;97201.94;;;10.70;64.14
77574;BME280;66710;48.868;9.080;2023-04-24T07:49:57;97208.81;;;10.43;64.52
77574;BME280;66710;48.868;9.080;2023-04-24T07:52:24;97206.63;;;10.16;64.53
77574;BME280;66710;48.868;9.080;2023-04-24T07:54:49;97204.38;;;10.23;63.88
77574;BME280;66710;48.868;9.080;2023-04-24T07:57:16;97213.88;;;10.50;64.47
77574;BME280;66710;48.868;9.080;2023-04-24T07:59:41;97214.16;;;10.24;65.24
77574;BME280;66710;48.868;9.080;2023-04-24T08:02:07;97222.09;;;10.20;65.32
77574;BME280;66710;48.868;9.080;2023-04-24T08:04:33;97226.84;;;10.10;63.87
77574;BME280;66710;48.868;9.080;2023-04-24T08:06:58;97219.47;;;11.02;63.91
77574;BME280;66710;48.868;9.080;2023-04-24T08:09:23;97228.56;;;10.54;63.85
77574;BME280;66710;48.868;9.080;2023-04-24T08:11:49;97242.19;;;10.24;63.83
77574;BME280;66710;48.868;9.080;2023-04-24T08:14:14;97250.44;;;9.90;64.72
77574;BME280;66710;48.868;9.080;2023-04-24T08:16:40;97248.59;;;9.85;64.71
77574;BME280;66710;48.868;9.080;2023-04-24T08:19:06;97249.16;;;10.12;63.39
77574;BME280;66710;48.868;9.080;2023-04-24T08:21:32;97262.41;;;10.18;61.45
77574;BME280;66710;48.868;9.080;2023-04-24T08:23:57;97253.56;;;10.80;60.65
77574;BME280;66710;48.868;9.080;2023-04-24T08:26:23;97262.19;;;10.87;58.54
77574;BME280;66710;48.868;9.080;2023-04-24T08:28:48;97250.53;;;11.19;58.34
77574;BME280;66710;48.868;9.080;2023-04-24T08:31:13;97245.91;;;11.20;56.66
77574;BME280;66710;48.868;9.080;2023-04-24T08:33:39;97268.72;;;10.86;54.91
77574;BME280;66710;48.868;9.080;2023-04-24T08:36:06;97250.97;;;11.08;55.17
77574;BME280;66710;48.868;9.080;2023-04-24T08:38:32;97254.78;;;10.69;55.48
77574;BME280;66710;48.868;9.080;2023-04-24T08:40:59;97257.66;;;10.34;56.45
77574;BME280;66710;48.868;9.080;2023-04-24T08:43:25;97252.16;;;10.39;55.77
77574;BME280;66710;48.868;9.080;2023-04-24T08:45:52;97266.13;;;10.28;55.31
77574;BME280;66710;48.868;9.080;2023-04-24T08:48:18;97268.31;;;10.25;56.07
77574;BME280;66710;48.868;9.080;2023-04-24T08:50:43;97278.50;;;10.15;57.40
77574;BME280;66710;48.868;9.080;2023-04-24T08:53:10;97282.31;;;10.67;55.58
77574;BME280;66710;48.868;9.080;2023-04-24T08:55:37;97262.31;;;11.15;55.82
77574;BME280;66710;48.868;9.080;2023-04-24T08:58:03;97261.75;;;10.56;58.07
77574;BME280;66710;48.868;9.080;2023-04-24T09:00:29;97270.50;;;10.53;57.41
77574;BME280;66710;48.868;9.080;2023-04-24T09:02:55;97273.97;;;11.02;56.54
77574;BME280;66710;48.868;9.080;2023-04-24T09:05:22;97283.38;;;10.90;56.52
77574;BME280;66710;48.868;9.080;2023-04-24T09:07:59;97287.31;;;11.41;55.27
77574;BME280;66710;48.868;9.080;2023-04-24T09:10:26;97289.81;;;10.99;56.34
77574;BME280;66710;48.868;9.080;2023-04-24T09:12:53;97278.09;;;10.56;56.61
77574;BME280;66710;48.868;9.080;2023-04-24T09:15:20;97310.06;;;10.16;57.04
77574;BME280;66710;48.868;9.080;2023-04-24T09:17:45;97314.50;;;10.36;54.13
77574;BME280;66710;48.868;9.080;2023-04-24T09:20:11;97321.78;;;10.70;54.07
77574;BME280;66710;48.868;9.080;2023-04-24T09:22:37;97308.94;;;10.22;55.26
77574;BME280;66710;48.868;9.080;2023-04-24T09:25:04;97298.50;;;10.29;55.50
77574;BME280;66710;48.868;9.080;2023-04-24T09:27:31;97304.16;;;10.38;56.55
77574;BME280;66710;48.868;9.080;2023-04-24T09:29:57;97321.41;;;11.00;55.31
77574;BME280;66710;48.868;9.080;2023-04-24T09:32:23;97302.09;;;11.54;54.60
77574;BME280;66710;48.868;9.080;2023-04-24T09:35:08;97284.69;;;11.88;54.15
77574;BME280;66710;48.868;9.080;2023-04-24T09:37:41;97305.22;;;11.09;54.35
77574;BME280;66710;48.868;9.080;2023-04-24T09:40:19;97297.63;;;11.63;54.07
77574;BME280;66710;48.868;9.080;2023-04-24T09:42:55;97301.13;;;10.88;56.57
77574;BME280;66710;48.868;9.080;2023-04-24T09:45:22;97319.16;;;10.59;57.34
77574;BME280;66710;48.868;9.080;2023-04-24T09:47:51;97316.56;;;11.35;54.81
77574;BME280;66710;48.868;9.080;2023-04-24T09:50:19;97310.38;;;11.11;57.58
77574;BME280;66710;48.868;9.080;2023-04-24T09:52:45;97311.47;;;11.67;56.31
77574;BME280;66710;48.868;9.080;2023-04-24T09:55:14;97335.88;;;11.77;53.62
77574;BME280;66710;48.868;9.080;2023-04-24T10:00:18;97343.59;;;12.08;54.36
77574;BME280;66710;48.868;9.080;2023-04-24T10:02:44;97347.31;;;11.79;54.11
77574;BME280;66710;48.868;9.080;2023-04-24T10:05:11;97348.88;;;12.18;52.97
77574;BME280;66710;48.868;9.080;2023-04-24T10:07:37;97333.97;;;12.10;52.12
77574;BME280;66710;48.868;9.080;2023-04-24T10:10:03;97329.16;;;11.50;54.11
77574;BME280;66710;48.868;9.080;2023-04-24T10:12:29;97340.97;;;10.84;54.19
77574;BME280;66710;48.868;9.080;2023-04-24T10:14:56;97353.66;;;10.93;55.17
77574;BME280;66710;48.868;9.080;2023-04-24T10:17:23;97344.22;;;10.61;55.72
77574;BME280;66710;48.868;9.080;2023-04-24T10:19:51;97344.03;;;10.77;56.48
77574;BME280;66710;48.868;9.080;2023-04-24T10:22:17;97349.75;;;10.51;55.80
77574;BME280;66710;48.868;9.080;2023-04-24T10:24:43;97358.56;;;10.43;55.74
77574;BME280;66710;48.868;9.080;2023-04-24T10:27:09;97369.56;;;10.28;56.25
77574;BME280;66710;48.868;9.080;2023-04-24T10:29:35;97372.56;;;10.31;56.63
77574;BME280;66710;48.868;9.080;2023-04-24T10:32:01;97354.59;;;10.25;56.69
77574;BME280;66710;48.868;9.080;2023-04-24T10:34:27;97370.78;;;10.46;56.50
77574;BME280;66710;48.868;9.080;2023-04-24T10:36:53;97373.03;;;10.38;55.78
77574;BME280;66710;48.868;9.080;2023-04-24T10:39:21;97370.56;;;10.42;55.57
77574;BME280;66710;48.868;9.080;2023-04-24T10:41:49;97366.47;;;10.69;55.42
77574;BME280;66710;48.868;9.080;2023-04-24T10:44:15;97372.94;;;10.73;54.73
77574;BME280;66710;48.868;9.080;2023-04-24T10:46:53;97376.03;;;10.66;54.30
77574;BME280;66710;48.868;9.080;2023-04-24T10:49:28;97362.06;;;10.73;54.67
77574;BME280;66710;48.868;9.080;2023-04-24T10:52:00;97366.19;;;10.70;55.55
77574;BME280;66710;48.868;9.080;2023-04-24T10:54:27;97370.88;;;10.89;55.76
77574;BME280;66710;48.868;9.080;2023-04-24T10:57:25;97375.25;;;11.52;53.74
77574;BME280;66710;48.868;9.080;2023-04-24T10:59:39;97375.31;;;11.47;54.28
77574;BME280;66710;48.868;9.080;2023-04-24T11:02:07;97374.09;;;12.29;52.70
77574;BME280;66710;48.868;9.080;2023-04-24T11:04:33;97402.25;;;11.72;52.57
77574;BME280;66710;48.868;9.080;2023-04-24T11:07:00;97380.78;;;11.85;52.06
77574;BME280;66710;48.868;9.080;2023-04-24T11:09:30;97395.16;;;12.42;52.24
77574;BME280;66710;48.868;9.080;2023-04-24T11:12:05;97401.38;;;12.15;52.91
77574;BME280;66710;48.868;9.080;2023-04-24T11:17:37;97386.38;;;12.45;51.97
77574;BME280;66710;48.868;9.080;2023-04-24T11:20:07;97401.81;;;12.69;52.33
77574;BME280;66710;48.868;9.080;2023-04-24T11:22:38;97405.16;;;12.00;50.98
77574;BME280;66710;48.868;9.080;2023-04-24T11:25:06;97403.00;;;11.97;52.28
77574;BME280;66710;48.868;9.080;2023-04-24T11:27:42;97394.06;;;11.53;53.68
77574;BME280;66710;48.868;9.080;2023-04-24T11:30:09;97409.31;;;11.11;53.15
77574;BME280;66710;48.868;9.080;2023-04-24T11:32:40;97394.06;;;10.86;54.45
77574;BME280;66710;48.868;9.080;2023-04-24T11:35:08;97399.22;;;10.88;55.16
77574;BME280;66710;48.868;9.080;2023-04-24T11:37:41;97413.13;;;10.86;55.54
77574;BME280;66710;48.868;9.080;2023-04-24T11:40:10;97415.47;;;10.98;55.91
77574;BME280;66710;48.868;9.080;2023-04-24T11:42:36;97417.00;;;10.56;57.06
77574;BME280;66710;48.868;9.080;2023-04-24T11:45:08;97431.19;;;10.53;57.05
77574;BME280;66710;48.868;9.080;2023-04-24T11:47:34;97413.75;;;10.78;57.33
77574;BME280;66710;48.868;9.080;2023-04-24T11:50:00;97431.59;;;10.65;56.66
77574;BME280;66710;48.868;9.080;2023-04-24T11:52:27;97420.44;;;11.15;56.12
77574;BME280;66710;48.868;9.080;2023-04-24T11:54:52;97426.19;;;10.89;56.66
77574;BME280;66710;48.868;9.080;2023-04-24T11:57:22;97428.97;;;10.84;54.60
77574;BME280;66710;48.868;9.080;2023-04-24T11:59:49;97419.16;;;10.83;55.04
77574;BME280;66710;48.868;9.080;2023-04-24T12:02:24;97427.81;;;10.90;55.40
77574;BME280;66710;48.868;9.080;2023-04-24T12:04:52;97427.56;;;10.87;56.24
77574;BME280;66710;48.868;9.080;2023-04-24T12:07:17;97420.56;;;10.80;55.42
77574;BME280;66710;48.868;9.080;2023-04-24T12:09:45;97429.59;;;10.76;55.50
77574;BME280;66710;48.868;9.080;2023-04-24T12:12:12;97433.78;;;10.92;56.10
77574;BME280;66710;48.868;9.080;2023-04-24T12:14:55;97443.53;;;10.69;55.71
77574;BME280;66710;48.868;9.080;2023-04-24T12:17:30;97434.31;;;10.65;54.80
77574;BME280;66710;48.868;9.080;2023-04-24T12:20:03;97437.63;;;10.91;55.96
77574;BME280;66710;48.868;9.080;2023-04-24T12:25:14;97441.03;;;11.02;55.33
77574;BME280;66710;48.868;9.080;2023-04-24T12:27:40;97438.13;;;10.93;56.59
77574;BME280;66710;48.868;9.080;2023-04-24T12:30:10;97433.03;;;11.11;56.16
77574;BME280;66710;48.868;9.080;2023-04-24T12:32:41;97433.47;;;10.70;55.20
77574;BME280;66710;48.868;9.080;2023-04-24T12:35:07;97437.56;;;10.96;55.73
77574;BME280;66710;48.868;9.080;2023-04-24T12:37:33;97447.53;;;11.06;54.71
77574;BME280;66710;48.868;9.080;2023-04-24T12:42:26;97439.34;;;11.30;55.13
77574;BME280;66710;48.868;9.080;2023-04-24T12:44:56;97446.41;;;10.83;55.76
77574;BME280;66710;48.868;9.080;2023-04-24T12:47:22;97441.06;;;10.73;56.98
77574;BME280;66710;48.868;9.080;2023-04-24T12:49:47;97453.25;;;10.51;58.11
77574;BME280;66710;48.868;9.080;2023-04-24T12:52:15;97448.03;;;10.55;58.64
77574;BME280;66710;48.868;9.080;2023-04-24T12:54:42;97459.38;;;9.88;64.52
77574;BME280;66710;48.868;9.080;2023-04-24T12:57:07;97451.84;;;10.59;62.69
77574;BME280;66710;48.868;9.080;2023-04-24T12:59:32;97454.63;;;10.78;61.93
77574;BME280;66710;48.868;9.080;2023-04-24T13:01:58;97449.50;;;11.49;59.17
77574;BME280;66710;48.868;9.080;2023-04-24T13:04:23;97447.78;;;11.96;58.30
77574;BME280;66710;48.868;9.080;2023-04-24T13:06:49;97435.53;;;11.31;59.07
77574;BME280;66710;48.868;9.080;2023-04-24T13:09:15;97443.88;;;11.40;57.77
77574;BME280;66710;48.868;9.080;2023-04-24T13:11:40;97449.97;;;11.08;59.78